Nearby METAR* Reports

*"METAR [Météorologique Aviation Régulière] is the international standard code format for hourly surface weather observations which is analogous to the SA coding currently used in the US. The acronym roughly translates from French as Aviation Routine Weather Report." (Source: http://gosic.org/wdcmet/us-metar-faq-taf)

 

KTEB - Teterboro, New Jersey, USA
Distance from station: ENE 2mi, 3km
Updated: 11/21/2017 2:51am
Clear
Clear
 Wind from SSE
Wind: SSE 5 mph , 7 km/h
Temperature: 37°F , 3°C
Wind Chill: 33°F , 1°C
Dew Point: 27°F , -3°C
Humidity: 65%
Barometer: 30.12 inHg , 1020 hPa
Clouds: Clear
Visibility: 10 miles , 16 km
2017/11/21 07:51 KTEB 210751Z 15004KT 10SM CLR 03/M03 A3012 RMK AO2 SLP200 T00331033
KNYC - Nyc/Central Park, New York, USA
Distance from station: SE 8mi, 13km
Updated: 11/21/2017 2:51am
Clear
Clear
 
Temperature: 43°F , 6°C
Dew Point: 27°F , -3°C
Humidity: 53%
Barometer: 30.15 inHg , 1021 hPa
Clouds: Clear
Visibility: 10 miles , 16 km
2017/11/21 07:51 KNYC 210751Z AUTO 10SM CLR 06/M03 A3015 RMK AO2 SLP200 T00611033 $
KCDW - Caldwell, New Jersey, USA
Distance from station: W 11mi, 17km
Updated: 11/21/2017 2:53am
Clear
Clear
 Wind from SW
Wind: SW 5 mph , 7 km/h
Temperature: 37°F , 3°C
Wind Chill: 33°F , 1°C
Dew Point: 23°F , -5°C
Humidity: 56%
Barometer: 30.13 inHg , 1020.3 hPa
Clouds: Clear
Visibility: 10 miles , 16 km
2017/11/21 07:53 KCDW 210753Z AUTO 23004KT 10SM CLR 03/M05 A3013 RMK AO2 SLP208 T00281050 TSNO
 
KLGA - Nyc/La Guardia, New York, USA
Distance from station: ESE 12mi, 19km
Updated: 11/21/2017 2:51am
Few Clouds
Few Clouds
 Wind from WSW
Wind: WSW 13 mph , 20 km/h
Temperature: 45°F , 7°C
Wind Chill: 39°F , 4°C
Dew Point: 28°F , -2°C
Humidity: 53%
Barometer: 30.12 inHg , 1020 hPa
Clouds: Few Clouds
Visibility: 10 miles , 16 km
Cloud details: Few Clouds 25000 ft
2017/11/21 07:51 KLGA 210751Z 24011KT 10SM FEW250 07/M02 A3012 RMK AO2 SLP201 T00721022
KEWR - Newark, New Jersey, USA
Distance from station: SSW 13mi, 20km
Updated: 11/21/2017 2:51am
Partly cloudy
Partly cloudy
 Wind from SW
Wind: SW 8 mph , 13 km/h
Temperature: 39°F , 4°C
Wind Chill: 33°F , 1°C
Dew Point: 27°F , -3°C
Humidity: 61%
Barometer: 30.14 inHg , 1020.7 hPa
Clouds: Partly cloudy
Visibility: 10 miles , 16 km
Cloud details: Partly cloudy 25000 ft
2017/11/21 07:51 KEWR 210751Z 22007KT 10SM SCT250 04/M03 A3014 RMK AO2 SLP205 T00391028 $
KMMU - Morristown Muni, New Jersey, USA
Distance from station: WSW 18mi, 29km
Updated: 11/21/2017 2:55am
Clear
Clear
 Wind from calm
Wind: Calm
Temperature: 32°F , 0°C
Dew Point: 25°F , -4°C
Humidity: 75%
Barometer: 30.12 inHg , 1020 hPa
Clouds: Clear
Visibility: 10 miles , 16 km
2017/11/21 07:55 KMMU 210755Z AUTO 00000KT 10SM CLR 00/M04 A3012 RMK AO2
 
KLDJ - Linden, New Jersey, USA
Distance from station: SSW 19mi, 30km
Updated: 11/21/2017 2:55am
Clear
Clear
 Wind from calm
Wind: Calm
Temperature: 39°F , 4°C
Dew Point: 27°F , -3°C
Humidity: 61%
Barometer: 30.15 inHg , 1021 hPa
Clouds: Clear
Visibility: 10 miles , 16 km
2017/11/21 07:55 KLDJ 210755Z AUTO 00000KT 10SM CLR 04/M03 A3015 RMK AO2 T00361031
KJFK - Nyc/Jfk Arpt, New York, USA
Distance from station: SE 23mi, 36km
Updated: 11/21/2017 2:51am
Partly cloudy
Partly cloudy
 Wind from WSW
Wind: WSW 14 mph , 22 km/h
Temperature: 43°F , 6°C
Wind Chill: 36°F , 2°C
Dew Point: 32°F , 0°C
Humidity: 66%
Barometer: 30.15 inHg , 1021 hPa
Clouds: Partly cloudy
Visibility: 10 miles , 16 km
Cloud details: Partly cloudy 25000 ft
2017/11/21 07:51 KJFK 210751Z 24012KT 10SM SCT250 06/00 A3015 RMK AO2 SLP209 T00610000
KHPN - White Plains, New York, USA
Distance from station: NE 25mi, 40km
Updated: 11/21/2017 2:56am
Clear
Clear
 Wind from W
Wind: W 5 mph , 7 km/h
Temperature: 39°F , 4°C
Wind Chill: 35°F , 2°C
Dew Point: 21°F , -6°C
Humidity: 48%
Barometer: 30.10 inHg , 1019.3 hPa
Clouds: Clear
Visibility: 10 miles , 16 km
2017/11/21 07:56 KHPN 210756Z 26004KT 10SM CLR 04/M06 A3010 RMK AO2 SLP197 T00391056
 
KSMQ - Somerville, New Jersey, USA
Distance from station: WSW 35mi, 56km
Updated: 11/21/2017 2:53am
Clear
Clear
 Wind from calm
Wind: Calm
Temperature: 28°F , -2°C
Dew Point: 25°F , -4°C
Humidity: 86%
Barometer: 30.13 inHg , 1020.3 hPa
Clouds: Clear
Visibility: 10 miles , 16 km
2017/11/21 07:53 KSMQ 210753Z AUTO 00000KT 10SM CLR M02/M04 A3013 RMK AO2 SLP203 T10221039
K12N - Andover, New Jersey, USA
Distance from station: WNW 36mi, 57km
Updated: 11/21/2017 2:54am

 Wind from calm
Wind: Calm
Temperature: 30°F , -1°C
Dew Point: 25°F , -4°C
Humidity: 80%
Barometer: 30.10 inHg , 1019.3 hPa
2017/11/21 07:54 K12N 210754Z AUTO 00000KT M01/M04 A3010 RMK AO1 SLP201 T10061044
KFRG - Farmingdale, New York, USA
Distance from station: ESE 36mi, 58km
Updated: 11/21/2017 2:53am
Clear
Clear
 Wind from SW
Wind: SW 7 mph , 11 km/h
Temperature: 41°F , 5°C
Wind Chill: 36°F , 2°C
Dew Point: 28°F , -2°C
Humidity: 61%
Barometer: 30.14 inHg , 1020.7 hPa
Clouds: Clear
Visibility: 10 miles , 16 km
2017/11/21 07:53 KFRG 210753Z AUTO 23006KT 10SM CLR 05/M02 A3014 RMK AO2 SLP206 T00501017
 
KFWN - Sussex, New Jersey, USA
Distance from station: NW 37mi, 60km
Updated: 11/21/2017 2:53am
Clear
Clear
 Wind from calm
Wind: Calm
Temperature: 30°F , -1°C
Dew Point: 25°F , -4°C
Humidity: 80%
Barometer: 30.09 inHg , 1019 hPa
Clouds: Clear
Visibility: 10 miles , 16 km
2017/11/21 07:53 KFWN 210753Z AUTO 00000KT 10SM CLR M01/M04 A3009 RMK AO2 SLP192 T10111044
KSWF - Newburgh/Stewart, New York, USA
Distance from station: 0 44mi, 72km
Updated: 11/21/2017 2:45am
Clear
Clear
 Wind from calm
Wind: Calm
Temperature: 30°F , -1°C
Dew Point: 27°F , -3°C
Humidity: 86%
Barometer: 30.09 inHg , 1019 hPa
Clouds: Clear
Visibility: 10 miles , 16 km
2017/11/21 07:45 KSWF 210745Z 00000KT 10SM SKC M01/M03 A3009
KMGJ - Montgomery, New York, USA
Distance from station: NNW 47mi, 75km
Updated: 11/21/2017 2:54am
Clear
Clear
 Wind from calm
Wind: Calm
Temperature: 27°F , -3°C
Dew Point: 23°F , -5°C
Humidity: 86%
Barometer: 30.07 inHg , 1018.3 hPa
Clouds: Clear
Visibility: 10 miles , 16 km
2017/11/21 07:54 KMGJ 210754Z AUTO 00000KT 10SM CLR M03/M05 A3007 RMK AO2 SLP188 T10331050
 
KDXR - Danbury, Connecticut, USA
Distance from station: NE 47mi, 76km
Updated: 11/21/2017 2:53am
Clear
Clear
 Wind from WSW
Wind: WSW 5 mph , 7 km/h
Temperature: 37°F , 3°C
Wind Chill: 33°F , 1°C
Dew Point: 23°F , -5°C
Humidity: 56%
Barometer: 30.11 inHg , 1019.6 hPa
Clouds: Clear
Visibility: 10 miles , 16 km
2017/11/21 07:53 KDXR 210753Z AUTO 25004KT 10SM CLR 03/M05 A3011 RMK AO2 SLP197 T00281050
KBLM - Belmar/Farmdale, New Jersey, USA
Distance from station: S 48mi, 77km
Updated: 11/21/2017 2:56am
Clear
Clear
 Wind from SSW
Wind: SSW 7 mph , 11 km/h
Temperature: 41°F , 5°C
Wind Chill: 36°F , 2°C
Dew Point: 28°F , -2°C
Humidity: 61%
Barometer: 30.16 inHg , 1021.3 hPa
Clouds: Clear
Visibility: 10 miles , 16 km
2017/11/21 07:56 KBLM 210756Z AUTO 21006KT 10SM CLR 05/M02 A3016 RMK AO2 SLP220 T00501022